Michigan Bluff, California
Current Conditions -  °F | °C
As of 11:52 PM on Friday 19 Dec 2014 (Local Time) from KBLU Reporting Station
Moderate Fog Moderate Fog  
Wind Chill: 31°   Ceiling: 200
Heat Index: 39°   Visibility: 0.25mi
Dew Point: 36°   Wind: 13mph
Humidity: 89%   Direction: 170°S
Pressure: 30.14"   Gusts: NA
Location:  39.0724°N, 120.571°W
Report Text: KBLU 200752Z AUTO 17011KT 1/4SM FG VV002 04/02 A3014 RMK AO2 RAE25 SLP206 P0002 T00390022 400390006
Loading
Personal Weather Stations






























Interactive Weather Map New forecast layout! Learn more

10-Day Weather Forecast

Advertisements
Track Severe Weather on mobile